sensor_id;sensor_type;location;lat;lon;timestamp;temperature;humidity
810;DHT22;387;48.772;9.186;2023-02-01T00:01:53;4.40;88.70
810;DHT22;387;48.772;9.186;2023-02-01T00:04:19;4.40;89.00
810;DHT22;387;48.772;9.186;2023-02-01T00:06:45;4.40;89.00
810;DHT22;387;48.772;9.186;2023-02-01T00:09:10;4.40;89.00
810;DHT22;387;48.772;9.186;2023-02-01T00:11:36;4.30;89.20
810;DHT22;387;48.772;9.186;2023-02-01T00:14:01;4.30;89.30
810;DHT22;387;48.772;9.186;2023-02-01T00:16:28;4.30;89.30
810;DHT22;387;48.772;9.186;2023-02-01T00:19:03;4.30;89.20
810;DHT22;387;48.772;9.186;2023-02-01T00:21:30;4.30;89.30
810;DHT22;387;48.772;9.186;2023-02-01T00:23:56;4.30;89.20
810;DHT22;387;48.772;9.186;2023-02-01T00:26:44;4.30;89.20
810;DHT22;387;48.772;9.186;2023-02-01T00:29:15;4.40;89.00
810;DHT22;387;48.772;9.186;2023-02-01T00:31:41;4.40;88.70
810;DHT22;387;48.772;9.186;2023-02-01T00:34:08;4.40;88.60
810;DHT22;387;48.772;9.186;2023-02-01T00:36:35;4.40;88.60
810;DHT22;387;48.772;9.186;2023-02-01T00:39:00;4.40;88.40
810;DHT22;387;48.772;9.186;2023-02-01T00:41:26;4.40;88.40
810;DHT22;387;48.772;9.186;2023-02-01T00:43:52;4.40;88.40
810;DHT22;387;48.772;9.186;2023-02-01T00:46:19;4.50;88.30
810;DHT22;387;48.772;9.186;2023-02-01T00:48:45;4.50;88.30
810;DHT22;387;48.772;9.186;2023-02-01T00:51:13;4.50;88.30
810;DHT22;387;48.772;9.186;2023-02-01T00:53:40;4.50;88.10
810;DHT22;387;48.772;9.186;2023-02-01T00:56:06;4.50;88.10
810;DHT22;387;48.772;9.186;2023-02-01T00:58:32;4.50;88.10
810;DHT22;387;48.772;9.186;2023-02-01T01:01:20;4.50;88.10
810;DHT22;387;48.772;9.186;2023-02-01T01:03:48;4.50;88.10
810;DHT22;387;48.772;9.186;2023-02-01T01:06:17;4.50;88.10
810;DHT22;387;48.772;9.186;2023-02-01T01:08:43;4.50;88.10
810;DHT22;387;48.772;9.186;2023-02-01T01:11:15;4.50;88.00
810;DHT22;387;48.772;9.186;2023-02-01T01:13:41;4.50;88.00
810;DHT22;387;48.772;9.186;2023-02-01T01:16:09;4.50;88.00
810;DHT22;387;48.772;9.186;2023-02-01T01:18:35;4.50;88.00
810;DHT22;387;48.772;9.186;2023-02-01T01:21:04;4.50;87.80
810;DHT22;387;48.772;9.186;2023-02-01T01:23:29;4.60;88.00
810;DHT22;387;48.772;9.186;2023-02-01T01:25:55;4.50;87.80
810;DHT22;387;48.772;9.186;2023-02-01T01:28:21;4.60;87.80
810;DHT22;387;48.772;9.186;2023-02-01T01:30:46;4.50;87.80
810;DHT22;387;48.772;9.186;2023-02-01T01:33:12;4.60;87.80
810;DHT22;387;48.772;9.186;2023-02-01T01:35:38;4.60;87.70
810;DHT22;387;48.772;9.186;2023-02-01T01:38:03;4.60;87.60
810;DHT22;387;48.772;9.186;2023-02-01T01:40:30;4.60;87.60
810;DHT22;387;48.772;9.186;2023-02-01T01:42:56;4.60;87.60
810;DHT22;387;48.772;9.186;2023-02-01T01:45:26;4.60;87.40
810;DHT22;387;48.772;9.186;2023-02-01T01:47:55;4.60;87.30
810;DHT22;387;48.772;9.186;2023-02-01T01:50:27;4.70;87.10
810;DHT22;387;48.772;9.186;2023-02-01T01:52:55;4.70;87.00
810;DHT22;387;48.772;9.186;2023-02-01T01:55:23;4.70;87.00
810;DHT22;387;48.772;9.186;2023-02-01T01:58:00;4.70;86.90
810;DHT22;387;48.772;9.186;2023-02-01T02:00:27;4.70;86.80
810;DHT22;387;48.772;9.186;2023-02-01T02:02:58;4.70;86.90
810;DHT22;387;48.772;9.186;2023-02-01T02:05:26;4.70;87.00
810;DHT22;387;48.772;9.186;2023-02-01T02:07:53;4.60;87.00
810;DHT22;387;48.772;9.186;2023-02-01T02:10:21;4.70;87.00
810;DHT22;387;48.772;9.186;2023-02-01T02:13:07;4.70;87.00
810;DHT22;387;48.772;9.186;2023-02-01T02:15:34;4.70;87.00
810;DHT22;387;48.772;9.186;2023-02-01T02:18:22;4.70;86.90
810;DHT22;387;48.772;9.186;2023-02-01T02:29:43;4.70;87.10
810;DHT22;387;48.772;9.186;2023-02-01T02:37:49;4.70;87.30
810;DHT22;387;48.772;9.186;2023-02-01T02:46:24;4.70;87.10
810;DHT22;387;48.772;9.186;2023-02-01T02:51:41;4.80;87.00
810;DHT22;387;48.772;9.186;2023-02-01T02:54:37;4.80;87.00
810;DHT22;387;48.772;9.186;2023-02-01T03:00:15;4.80;87.70
810;DHT22;387;48.772;9.186;2023-02-01T03:03:01;4.80;87.80
810;DHT22;387;48.772;9.186;2023-02-01T03:05:47;4.70;88.40
810;DHT22;387;48.772;9.186;2023-02-01T03:08:22;4.70;89.00
810;DHT22;387;48.772;9.186;2023-02-01T03:10:58;4.70;89.30
810;DHT22;387;48.772;9.186;2023-02-01T03:13:27;4.60;89.50
810;DHT22;387;48.772;9.186;2023-02-01T03:18:45;4.70;89.30
810;DHT22;387;48.772;9.186;2023-02-01T03:21:18;4.70;89.20
810;DHT22;387;48.772;9.186;2023-02-01T03:23:46;4.70;89.20
810;DHT22;387;48.772;9.186;2023-02-01T03:26:14;4.70;88.90
810;DHT22;387;48.772;9.186;2023-02-01T03:28:47;4.70;89.00
810;DHT22;387;48.772;9.186;2023-02-01T03:31:13;4.70;88.90
810;DHT22;387;48.772;9.186;2023-02-01T03:33:39;4.70;88.70
810;DHT22;387;48.772;9.186;2023-02-01T03:36:26;4.70;88.90
810;DHT22;387;48.772;9.186;2023-02-01T03:39:16;4.70;89.20
810;DHT22;387;48.772;9.186;2023-02-01T03:41:49;4.70;89.20
810;DHT22;387;48.772;9.186;2023-02-01T03:47:23;4.70;89.00
810;DHT22;387;48.772;9.186;2023-02-01T03:49:54;4.80;88.30
810;DHT22;387;48.772;9.186;2023-02-01T03:54:53;4.90;87.10
810;DHT22;387;48.772;9.186;2023-02-01T03:57:29;5.00;86.90
810;DHT22;387;48.772;9.186;2023-02-01T04:00:09;5.00;86.90
810;DHT22;387;48.772;9.186;2023-02-01T04:02:35;4.90;87.10
810;DHT22;387;48.772;9.186;2023-02-01T04:05:01;4.90;87.60
810;DHT22;387;48.772;9.186;2023-02-01T04:07:26;4.90;87.70
810;DHT22;387;48.772;9.186;2023-02-01T04:09:52;4.90;87.80
810;DHT22;387;48.772;9.186;2023-02-01T04:12:17;4.90;87.80
810;DHT22;387;48.772;9.186;2023-02-01T04:14:43;4.90;87.60
810;DHT22;387;48.772;9.186;2023-02-01T04:17:08;4.90;87.40
810;DHT22;387;48.772;9.186;2023-02-01T04:19:34;4.90;87.30
810;DHT22;387;48.772;9.186;2023-02-01T04:21:59;5.00;87.10
810;DHT22;387;48.772;9.186;2023-02-01T04:24:25;5.00;87.10
810;DHT22;387;48.772;9.186;2023-02-01T04:26:50;5.00;87.10
810;DHT22;387;48.772;9.186;2023-02-01T04:29:16;5.00;87.30
810;DHT22;387;48.772;9.186;2023-02-01T04:31:41;4.90;87.40
810;DHT22;387;48.772;9.186;2023-02-01T04:34:07;4.90;87.60
810;DHT22;387;48.772;9.186;2023-02-01T04:36:32;4.90;87.70
810;DHT22;387;48.772;9.186;2023-02-01T04:38:58;4.90;87.70
810;DHT22;387;48.772;9.186;2023-02-01T04:41:24;4.90;87.70
810;DHT22;387;48.772;9.186;2023-02-01T04:43:50;4.90;87.70
810;DHT22;387;48.772;9.186;2023-02-01T04:46:17;4.80;87.80
810;DHT22;387;48.772;9.186;2023-02-01T04:48:43;4.90;87.80
810;DHT22;387;48.772;9.186;2023-02-01T04:51:09;4.90;87.70
810;DHT22;387;48.772;9.186;2023-02-01T04:53:35;5.00;87.40
810;DHT22;387;48.772;9.186;2023-02-01T04:56:01;5.00;87.40
810;DHT22;387;48.772;9.186;2023-02-01T04:58:26;5.00;87.30
810;DHT22;387;48.772;9.186;2023-02-01T05:00:52;5.00;87.30
810;DHT22;387;48.772;9.186;2023-02-01T05:03:18;5.00;87.00
810;DHT22;387;48.772;9.186;2023-02-01T05:05:44;5.10;87.10
810;DHT22;387;48.772;9.186;2023-02-01T05:08:09;5.10;86.80
810;DHT22;387;48.772;9.186;2023-02-01T05:10:35;5.10;86.90
810;DHT22;387;48.772;9.186;2023-02-01T05:13:00;5.10;86.80
810;DHT22;387;48.772;9.186;2023-02-01T05:15:44;5.10;86.60
810;DHT22;387;48.772;9.186;2023-02-01T05:18:12;5.10;86.30
810;DHT22;387;48.772;9.186;2023-02-01T05:20:37;5.10;86.20
810;DHT22;387;48.772;9.186;2023-02-01T05:23:03;5.10;86.20
810;DHT22;387;48.772;9.186;2023-02-01T05:25:29;5.20;86.20
810;DHT22;387;48.772;9.186;2023-02-01T05:27:54;5.20;86.20
810;DHT22;387;48.772;9.186;2023-02-01T05:30:20;5.20;85.90
810;DHT22;387;48.772;9.186;2023-02-01T05:32:49;5.20;85.90
810;DHT22;387;48.772;9.186;2023-02-01T05:35:15;5.20;86.00
810;DHT22;387;48.772;9.186;2023-02-01T05:37:41;5.20;86.00
810;DHT22;387;48.772;9.186;2023-02-01T05:40:07;5.20;86.00
810;DHT22;387;48.772;9.186;2023-02-01T05:42:33;5.20;86.20
810;DHT22;387;48.772;9.186;2023-02-01T05:44:59;5.20;86.20
810;DHT22;387;48.772;9.186;2023-02-01T05:47:24;5.20;86.20
810;DHT22;387;48.772;9.186;2023-02-01T05:49:50;5.20;86.50
810;DHT22;387;48.772;9.186;2023-02-01T05:52:15;5.10;86.50
810;DHT22;387;48.772;9.186;2023-02-01T05:54:45;5.20;86.60
810;DHT22;387;48.772;9.186;2023-02-01T05:57:11;5.10;86.80
810;DHT22;387;48.772;9.186;2023-02-01T05:59:38;5.00;87.70
810;DHT22;387;48.772;9.186;2023-02-01T06:02:07;4.90;88.40
810;DHT22;387;48.772;9.186;2023-02-01T06:04:32;4.80;89.60
810;DHT22;387;48.772;9.186;2023-02-01T06:06:58;4.70;90.20
810;DHT22;387;48.772;9.186;2023-02-01T06:09:23;4.60;90.60
810;DHT22;387;48.772;9.186;2023-02-01T06:11:49;4.50;90.70
810;DHT22;387;48.772;9.186;2023-02-01T06:14:14;4.50;90.80
810;DHT22;387;48.772;9.186;2023-02-01T06:16:40;4.50;90.80
810;DHT22;387;48.772;9.186;2023-02-01T06:19:05;4.50;90.80
810;DHT22;387;48.772;9.186;2023-02-01T06:21:31;4.50;90.70
810;DHT22;387;48.772;9.186;2023-02-01T06:23:57;4.50;90.60
810;DHT22;387;48.772;9.186;2023-02-01T06:26:23;4.50;90.50
810;DHT22;387;48.772;9.186;2023-02-01T06:28:49;4.60;90.40
810;DHT22;387;48.772;9.186;2023-02-01T06:31:15;4.70;90.00
810;DHT22;387;48.772;9.186;2023-02-01T06:33:40;4.70;89.60
810;DHT22;387;48.772;9.186;2023-02-01T06:36:09;4.70;89.50
810;DHT22;387;48.772;9.186;2023-02-01T06:38:35;4.70;89.30
810;DHT22;387;48.772;9.186;2023-02-01T06:41:01;4.80;89.50
810;DHT22;387;48.772;9.186;2023-02-01T06:43:28;4.80;89.50
810;DHT22;387;48.772;9.186;2023-02-01T06:45:58;4.80;89.60
810;DHT22;387;48.772;9.186;2023-02-01T06:48:24;4.80;89.70
810;DHT22;387;48.772;9.186;2023-02-01T06:50:50;4.80;89.70
810;DHT22;387;48.772;9.186;2023-02-01T06:53:15;4.80;89.70
810;DHT22;387;48.772;9.186;2023-02-01T06:55:41;4.80;89.70
810;DHT22;387;48.772;9.186;2023-02-01T06:58:07;4.80;89.70
810;DHT22;387;48.772;9.186;2023-02-01T07:00:32;4.90;89.20
810;DHT22;387;48.772;9.186;2023-02-01T07:02:58;5.00;88.60
810;DHT22;387;48.772;9.186;2023-02-01T07:05:25;5.10;88.40
810;DHT22;387;48.772;9.186;2023-02-01T07:07:50;5.10;88.00
810;DHT22;387;48.772;9.186;2023-02-01T07:10:16;5.20;87.60
810;DHT22;387;48.772;9.186;2023-02-01T07:12:42;5.20;87.00
810;DHT22;387;48.772;9.186;2023-02-01T07:15:08;5.20;87.00
810;DHT22;387;48.772;9.186;2023-02-01T07:17:33;5.30;86.60
810;DHT22;387;48.772;9.186;2023-02-01T07:19:59;5.30;86.50
810;DHT22;387;48.772;9.186;2023-02-01T07:22:25;5.30;86.60
810;DHT22;387;48.772;9.186;2023-02-01T07:24:51;5.30;86.60
810;DHT22;387;48.772;9.186;2023-02-01T07:27:17;5.40;86.80
810;DHT22;387;48.772;9.186;2023-02-01T07:29:42;5.40;86.30
810;DHT22;387;48.772;9.186;2023-02-01T07:32:08;5.40;86.20
810;DHT22;387;48.772;9.186;2023-02-01T07:34:33;5.40;86.20
810;DHT22;387;48.772;9.186;2023-02-01T07:37:00;5.30;86.20
810;DHT22;387;48.772;9.186;2023-02-01T07:39:25;5.30;86.30
810;DHT22;387;48.772;9.186;2023-02-01T07:41:53;5.30;86.50
810;DHT22;387;48.772;9.186;2023-02-01T07:44:19;5.30;86.60
810;DHT22;387;48.772;9.186;2023-02-01T07:46:48;5.30;86.60
810;DHT22;387;48.772;9.186;2023-02-01T07:49:13;5.40;86.50
810;DHT22;387;48.772;9.186;2023-02-01T07:51:39;5.40;86.00
810;DHT22;387;48.772;9.186;2023-02-01T07:54:05;5.40;85.90
810;DHT22;387;48.772;9.186;2023-02-01T07:56:30;5.40;85.60
810;DHT22;387;48.772;9.186;2023-02-01T07:58:56;5.40;85.50
810;DHT22;387;48.772;9.186;2023-02-01T08:01:26;5.50;85.30
810;DHT22;387;48.772;9.186;2023-02-01T08:03:53;5.50;84.70
810;DHT22;387;48.772;9.186;2023-02-01T08:06:20;5.50;84.30
810;DHT22;387;48.772;9.186;2023-02-01T08:08:47;5.50;84.10
810;DHT22;387;48.772;9.186;2023-02-01T08:11:14;5.60;84.30
810;DHT22;387;48.772;9.186;2023-02-01T08:13:40;5.60;84.10
810;DHT22;387;48.772;9.186;2023-02-01T08:16:07;5.60;83.80
810;DHT22;387;48.772;9.186;2023-02-01T08:18:34;5.70;83.70
810;DHT22;387;48.772;9.186;2023-02-01T08:21:04;5.70;83.70
810;DHT22;387;48.772;9.186;2023-02-01T08:23:29;5.60;83.80
810;DHT22;387;48.772;9.186;2023-02-01T08:26:07;5.70;83.80
810;DHT22;387;48.772;9.186;2023-02-01T08:28:33;5.70;83.40
810;DHT22;387;48.772;9.186;2023-02-01T08:30:59;5.80;83.30
810;DHT22;387;48.772;9.186;2023-02-01T08:33:28;5.80;83.10
810;DHT22;387;48.772;9.186;2023-02-01T08:35:54;5.80;83.00
810;DHT22;387;48.772;9.186;2023-02-01T08:38:19;5.90;82.40
810;DHT22;387;48.772;9.186;2023-02-01T08:40:45;5.90;82.10
810;DHT22;387;48.772;9.186;2023-02-01T08:43:11;5.90;81.80
810;DHT22;387;48.772;9.186;2023-02-01T08:45:40;6.00;81.40
810;DHT22;387;48.772;9.186;2023-02-01T08:48:06;6.00;81.10
810;DHT22;387;48.772;9.186;2023-02-01T08:50:31;6.10;81.40
810;DHT22;387;48.772;9.186;2023-02-01T08:52:57;6.20;80.90
810;DHT22;387;48.772;9.186;2023-02-01T08:55:22;6.20;80.50
810;DHT22;387;48.772;9.186;2023-02-01T08:57:48;6.20;80.20
810;DHT22;387;48.772;9.186;2023-02-01T09:00:16;6.20;80.00
810;DHT22;387;48.772;9.186;2023-02-01T09:02:42;6.30;79.60
810;DHT22;387;48.772;9.186;2023-02-01T09:05:08;6.30;79.60
810;DHT22;387;48.772;9.186;2023-02-01T09:07:34;6.30;78.90
810;DHT22;387;48.772;9.186;2023-02-01T09:10:00;6.30;78.70
810;DHT22;387;48.772;9.186;2023-02-01T09:12:27;6.40;78.60
810;DHT22;387;48.772;9.186;2023-02-01T09:14:54;6.30;78.60
810;DHT22;387;48.772;9.186;2023-02-01T09:17:20;6.30;78.30
810;DHT22;387;48.772;9.186;2023-02-01T09:19:46;6.30;78.60
810;DHT22;387;48.772;9.186;2023-02-01T09:22:11;6.30;78.40
810;DHT22;387;48.772;9.186;2023-02-01T09:24:37;6.40;78.60
810;DHT22;387;48.772;9.186;2023-02-01T09:27:02;6.50;78.40
810;DHT22;387;48.772;9.186;2023-02-01T09:29:28;6.40;77.60
810;DHT22;387;48.772;9.186;2023-02-01T09:31:54;6.50;78.00
810;DHT22;387;48.772;9.186;2023-02-01T09:34:19;6.60;78.00
810;DHT22;387;48.772;9.186;2023-02-01T09:36:45;6.70;77.30
810;DHT22;387;48.772;9.186;2023-02-01T09:39:10;6.70;77.00
810;DHT22;387;48.772;9.186;2023-02-01T09:41:57;6.70;76.40
810;DHT22;387;48.772;9.186;2023-02-01T09:44:47;6.80;76.70
810;DHT22;387;48.772;9.186;2023-02-01T09:47:22;6.90;75.90
810;DHT22;387;48.772;9.186;2023-02-01T09:50:02;6.90;75.90
810;DHT22;387;48.772;9.186;2023-02-01T09:52:40;6.90;75.70
810;DHT22;387;48.772;9.186;2023-02-01T09:55:16;6.90;75.90
810;DHT22;387;48.772;9.186;2023-02-01T09:57:53;7.00;75.50
810;DHT22;387;48.772;9.186;2023-02-01T10:00:31;7.00;74.60
810;DHT22;387;48.772;9.186;2023-02-01T10:02:57;7.00;74.30
810;DHT22;387;48.772;9.186;2023-02-01T10:08:24;7.10;73.70
810;DHT22;387;48.772;9.186;2023-02-01T10:10:54;7.10;73.30
810;DHT22;387;48.772;9.186;2023-02-01T10:16:48;7.10;73.60
810;DHT22;387;48.772;9.186;2023-02-01T10:19:44;6.90;73.70
810;DHT22;387;48.772;9.186;2023-02-01T10:22:27;7.00;73.70
810;DHT22;387;48.772;9.186;2023-02-01T10:25:04;7.10;73.50
810;DHT22;387;48.772;9.186;2023-02-01T10:27:37;7.10;72.40
810;DHT22;387;48.772;9.186;2023-02-01T10:30:22;7.20;72.70
810;DHT22;387;48.772;9.186;2023-02-01T10:32:52;7.30;72.30
810;DHT22;387;48.772;9.186;2023-02-01T10:35:26;7.30;72.30
810;DHT22;387;48.772;9.186;2023-02-01T10:37:52;7.30;72.30
810;DHT22;387;48.772;9.186;2023-02-01T10:40:23;7.30;72.40
810;DHT22;387;48.772;9.186;2023-02-01T10:42:52;7.30;72.70
810;DHT22;387;48.772;9.186;2023-02-01T10:45:23;7.30;72.30
810;DHT22;387;48.772;9.186;2023-02-01T10:47:51;7.10;72.30
810;DHT22;387;48.772;9.186;2023-02-01T10:50:40;7.20;72.70
810;DHT22;387;48.772;9.186;2023-02-01T10:53:15;7.20;72.10
810;DHT22;387;48.772;9.186;2023-02-01T10:58:31;7.20;71.80
810;DHT22;387;48.772;9.186;2023-02-01T11:01:04;7.20;72.00
810;DHT22;387;48.772;9.186;2023-02-01T11:06:10;7.20;71.40
810;DHT22;387;48.772;9.186;2023-02-01T11:08:51;7.20;71.70
810;DHT22;387;48.772;9.186;2023-02-01T11:11:18;7.20;71.80
810;DHT22;387;48.772;9.186;2023-02-01T11:13:44;7.20;71.40
810;DHT22;387;48.772;9.186;2023-02-01T11:16:16;7.20;71.30
810;DHT22;387;48.772;9.186;2023-02-01T11:18:43;7.20;71.00
810;DHT22;387;48.772;9.186;2023-02-01T11:21:11;7.20;71.00
810;DHT22;387;48.772;9.186;2023-02-01T11:23:44;7.20;71.10
810;DHT22;387;48.772;9.186;2023-02-01T11:26:12;7.30;71.10
810;DHT22;387;48.772;9.186;2023-02-01T11:28:40;7.30;70.70
810;DHT22;387;48.772;9.186;2023-02-01T11:31:11;7.30;70.70
810;DHT22;387;48.772;9.186;2023-02-01T11:33:39;7.20;70.80
810;DHT22;387;48.772;9.186;2023-02-01T11:36:14;7.30;71.00
810;DHT22;387;48.772;9.186;2023-02-01T11:39:52;7.50;71.10
810;DHT22;387;48.772;9.186;2023-02-01T11:42:06;7.50;70.20
810;DHT22;387;48.772;9.186;2023-02-01T11:44:39;7.50;69.90
810;DHT22;387;48.772;9.186;2023-02-01T11:49:58;7.30;70.10
810;DHT22;387;48.772;9.186;2023-02-01T11:53:00;7.40;70.80
810;DHT22;387;48.772;9.186;2023-02-01T11:56:08;7.40;70.80
810;DHT22;387;48.772;9.186;2023-02-01T12:09:21;7.60;69.10
810;DHT22;387;48.772;9.186;2023-02-01T12:15:11;7.20;69.70
810;DHT22;387;48.772;9.186;2023-02-01T12:17:45;7.20;69.70
810;DHT22;387;48.772;9.186;2023-02-01T12:20:41;7.30;70.10
810;DHT22;387;48.772;9.186;2023-02-01T12:32:13;7.40;69.90
810;DHT22;387;48.772;9.186;2023-02-01T12:40:26;7.10;70.70
810;DHT22;387;48.772;9.186;2023-02-01T12:45:42;7.00;71.10
810;DHT22;387;48.772;9.186;2023-02-01T12:50:45;7.00;71.60
810;DHT22;387;48.772;9.186;2023-02-01T12:53:16;7.00;71.60
810;DHT22;387;48.772;9.186;2023-02-01T12:55:52;7.00;71.60
810;DHT22;387;48.772;9.186;2023-02-01T12:58:48;7.10;71.60
810;DHT22;387;48.772;9.186;2023-02-01T13:04:08;7.00;71.80
810;DHT22;387;48.772;9.186;2023-02-01T13:06:50;7.00;72.00
810;DHT22;387;48.772;9.186;2023-02-01T13:09:29;7.10;72.00
810;DHT22;387;48.772;9.186;2023-02-01T13:11:59;7.10;72.10
810;DHT22;387;48.772;9.186;2023-02-01T13:17:10;7.00;72.30
810;DHT22;387;48.772;9.186;2023-02-01T13:22:38;7.00;72.30
810;DHT22;387;48.772;9.186;2023-02-01T13:25:13;7.00;72.30
810;DHT22;387;48.772;9.186;2023-02-01T13:27:41;6.90;72.60
810;DHT22;387;48.772;9.186;2023-02-01T13:30:27;7.00;72.40
810;DHT22;387;48.772;9.186;2023-02-01T13:41:24;7.10;72.00
810;DHT22;387;48.772;9.186;2023-02-01T13:44:04;7.10;71.70
810;DHT22;387;48.772;9.186;2023-02-01T13:46:42;7.20;72.00
810;DHT22;387;48.772;9.186;2023-02-01T13:49:28;7.20;72.10
810;DHT22;387;48.772;9.186;2023-02-01T13:51:57;7.20;72.10
810;DHT22;387;48.772;9.186;2023-02-01T13:54:30;7.10;72.40
810;DHT22;387;48.772;9.186;2023-02-01T13:56:57;7.10;72.60
810;DHT22;387;48.772;9.186;2023-02-01T13:59:49;6.90;72.60
810;DHT22;387;48.772;9.186;2023-02-01T14:05:12;6.90;73.60
810;DHT22;387;48.772;9.186;2023-02-01T14:21:31;7.00;72.70
810;DHT22;387;48.772;9.186;2023-02-01T14:26:50;6.90;72.40
810;DHT22;387;48.772;9.186;2023-02-01T14:29:23;6.80;72.60
810;DHT22;387;48.772;9.186;2023-02-01T14:32:20;6.80;72.60
810;DHT22;387;48.772;9.186;2023-02-01T14:44:40;7.00;72.30
810;DHT22;387;48.772;9.186;2023-02-01T14:49:46;7.00;72.10
810;DHT22;387;48.772;9.186;2023-02-01T14:52:17;7.00;72.10
810;DHT22;387;48.772;9.186;2023-02-01T14:54:48;6.90;72.30
810;DHT22;387;48.772;9.186;2023-02-01T14:57:17;6.80;72.70
810;DHT22;387;48.772;9.186;2023-02-01T14:59:45;6.90;72.90
810;DHT22;387;48.772;9.186;2023-02-01T15:02:21;7.00;72.90
810;DHT22;387;48.772;9.186;2023-02-01T15:04:54;7.00;73.00
810;DHT22;387;48.772;9.186;2023-02-01T15:07:21;7.00;73.00
810;DHT22;387;48.772;9.186;2023-02-01T15:09:49;7.00;73.00
810;DHT22;387;48.772;9.186;2023-02-01T15:12:18;6.90;72.60
810;DHT22;387;48.772;9.186;2023-02-01T15:14:48;7.00;72.90
810;DHT22;387;48.772;9.186;2023-02-01T15:17:29;7.00;72.90
810;DHT22;387;48.772;9.186;2023-02-01T15:20:13;7.00;73.00
810;DHT22;387;48.772;9.186;2023-02-01T15:22:39;7.00;73.20
810;DHT22;387;48.772;9.186;2023-02-01T15:25:05;6.90;73.30
810;DHT22;387;48.772;9.186;2023-02-01T15:27:32;6.90;73.60
810;DHT22;387;48.772;9.186;2023-02-01T15:30:08;6.80;73.70
810;DHT22;387;48.772;9.186;2023-02-01T15:32:37;6.80;73.90
810;DHT22;387;48.772;9.186;2023-02-01T15:35:05;6.70;74.00
810;DHT22;387;48.772;9.186;2023-02-01T15:37:31;6.70;74.30
810;DHT22;387;48.772;9.186;2023-02-01T15:42:55;6.60;73.60
810;DHT22;387;48.772;9.186;2023-02-01T15:45:29;6.70;73.60
810;DHT22;387;48.772;9.186;2023-02-01T15:47:57;6.70;73.60
810;DHT22;387;48.772;9.186;2023-02-01T15:50:23;6.70;73.50
810;DHT22;387;48.772;9.186;2023-02-01T15:52:53;6.80;73.30
810;DHT22;387;48.772;9.186;2023-02-01T15:55:29;6.80;73.00
810;DHT22;387;48.772;9.186;2023-02-01T15:57:58;6.80;72.90
810;DHT22;387;48.772;9.186;2023-02-01T16:00:26;6.80;72.90
810;DHT22;387;48.772;9.186;2023-02-01T16:02:58;6.90;72.70
810;DHT22;387;48.772;9.186;2023-02-01T16:05:30;6.80;72.30
810;DHT22;387;48.772;9.186;2023-02-01T16:08:14;6.80;72.10
810;DHT22;387;48.772;9.186;2023-02-01T16:10:45;6.90;72.10
810;DHT22;387;48.772;9.186;2023-02-01T16:13:12;6.90;71.80
810;DHT22;387;48.772;9.186;2023-02-01T16:15:38;6.90;72.00
810;DHT22;387;48.772;9.186;2023-02-01T16:18:04;6.90;71.70
810;DHT22;387;48.772;9.186;2023-02-01T16:20:30;6.90;71.70
810;DHT22;387;48.772;9.186;2023-02-01T16:22:56;6.90;71.80
810;DHT22;387;48.772;9.186;2023-02-01T16:25:21;6.90;71.80
810;DHT22;387;48.772;9.186;2023-02-01T16:27:47;6.90;71.70
810;DHT22;387;48.772;9.186;2023-02-01T16:30:12;6.90;71.70
810;DHT22;387;48.772;9.186;2023-02-01T16:32:38;6.90;71.80
810;DHT22;387;48.772;9.186;2023-02-01T16:35:09;6.90;71.70
810;DHT22;387;48.772;9.186;2023-02-01T16:37:38;6.90;71.80
810;DHT22;387;48.772;9.186;2023-02-01T16:40:04;6.80;71.80
810;DHT22;387;48.772;9.186;2023-02-01T16:42:29;6.90;72.00
810;DHT22;387;48.772;9.186;2023-02-01T16:44:56;6.90;71.80
810;DHT22;387;48.772;9.186;2023-02-01T16:47:22;6.90;72.00
810;DHT22;387;48.772;9.186;2023-02-01T16:49:48;6.80;71.80
810;DHT22;387;48.772;9.186;2023-02-01T16:52:25;6.80;72.00
810;DHT22;387;48.772;9.186;2023-02-01T16:54:51;6.90;72.00
810;DHT22;387;48.772;9.186;2023-02-01T16:57:19;6.80;71.70
810;DHT22;387;48.772;9.186;2023-02-01T16:59:54;6.80;71.70
810;DHT22;387;48.772;9.186;2023-02-01T17:02:20;6.80;72.10
810;DHT22;387;48.772;9.186;2023-02-01T17:04:47;6.80;72.10
810;DHT22;387;48.772;9.186;2023-02-01T17:07:17;6.80;72.10
810;DHT22;387;48.772;9.186;2023-02-01T17:09:44;6.70;71.70
810;DHT22;387;48.772;9.186;2023-02-01T17:12:23;6.70;72.30
810;DHT22;387;48.772;9.186;2023-02-01T17:14:49;6.70;72.60
810;DHT22;387;48.772;9.186;2023-02-01T17:17:16;6.70;72.70
810;DHT22;387;48.772;9.186;2023-02-01T17:19:43;6.60;72.90
810;DHT22;387;48.772;9.186;2023-02-01T17:22:09;6.60;72.70
810;DHT22;387;48.772;9.186;2023-02-01T17:24:35;6.60;72.90
810;DHT22;387;48.772;9.186;2023-02-01T17:27:01;6.60;72.90
810;DHT22;387;48.772;9.186;2023-02-01T17:29:28;6.60;72.90
810;DHT22;387;48.772;9.186;2023-02-01T17:31:54;6.60;73.00
810;DHT22;387;48.772;9.186;2023-02-01T17:34:21;6.60;73.00
810;DHT22;387;48.772;9.186;2023-02-01T17:36:48;6.50;73.20
810;DHT22;387;48.772;9.186;2023-02-01T17:39:14;6.60;73.30
810;DHT22;387;48.772;9.186;2023-02-01T17:42:00;6.60;73.00
810;DHT22;387;48.772;9.186;2023-02-01T17:44:26;6.70;73.00
810;DHT22;387;48.772;9.186;2023-02-01T17:46:52;6.60;72.90
810;DHT22;387;48.772;9.186;2023-02-01T17:49:17;6.60;73.20
810;DHT22;387;48.772;9.186;2023-02-01T17:51:43;6.50;73.20
810;DHT22;387;48.772;9.186;2023-02-01T17:54:12;6.50;73.30
810;DHT22;387;48.772;9.186;2023-02-01T17:56:38;6.50;73.30
810;DHT22;387;48.772;9.186;2023-02-01T17:59:04;6.60;73.30
810;DHT22;387;48.772;9.186;2023-02-01T18:01:29;6.60;73.30
810;DHT22;387;48.772;9.186;2023-02-01T18:03:55;6.50;73.30
810;DHT22;387;48.772;9.186;2023-02-01T18:06:22;6.50;73.60
810;DHT22;387;48.772;9.186;2023-02-01T18:08:48;6.50;73.60
810;DHT22;387;48.772;9.186;2023-02-01T18:11:19;6.50;73.60
810;DHT22;387;48.772;9.186;2023-02-01T18:13:45;6.50;73.70
810;DHT22;387;48.772;9.186;2023-02-01T18:16:23;6.50;73.70
810;DHT22;387;48.772;9.186;2023-02-01T18:18:50;6.50;73.90
810;DHT22;387;48.772;9.186;2023-02-01T18:21:17;6.50;73.90
810;DHT22;387;48.772;9.186;2023-02-01T18:23:44;6.50;74.00
810;DHT22;387;48.772;9.186;2023-02-01T18:26:14;6.50;74.00
810;DHT22;387;48.772;9.186;2023-02-01T18:28:41;6.50;74.00
810;DHT22;387;48.772;9.186;2023-02-01T18:31:13;6.50;74.20
810;DHT22;387;48.772;9.186;2023-02-01T18:33:41;6.60;74.00
810;DHT22;387;48.772;9.186;2023-02-01T18:36:10;6.60;73.90
810;DHT22;387;48.772;9.186;2023-02-01T18:38:37;6.60;73.90
810;DHT22;387;48.772;9.186;2023-02-01T18:41:02;6.60;73.90
810;DHT22;387;48.772;9.186;2023-02-01T18:43:29;6.60;73.90
810;DHT22;387;48.772;9.186;2023-02-01T18:45:55;6.60;73.90
810;DHT22;387;48.772;9.186;2023-02-01T18:48:21;6.70;73.70
810;DHT22;387;48.772;9.186;2023-02-01T18:50:47;6.70;73.60
810;DHT22;387;48.772;9.186;2023-02-01T18:53:18;6.60;73.50
810;DHT22;387;48.772;9.186;2023-02-01T18:55:51;6.60;73.50
810;DHT22;387;48.772;9.186;2023-02-01T18:58:17;6.60;73.30
810;DHT22;387;48.772;9.186;2023-02-01T19:00:44;6.60;73.30
810;DHT22;387;48.772;9.186;2023-02-01T19:03:14;6.60;73.30
810;DHT22;387;48.772;9.186;2023-02-01T19:05:40;6.60;73.50
810;DHT22;387;48.772;9.186;2023-02-01T19:08:06;6.70;73.00
810;DHT22;387;48.772;9.186;2023-02-01T19:10:33;6.70;73.20
810;DHT22;387;48.772;9.186;2023-02-01T19:13:00;6.70;72.70
810;DHT22;387;48.772;9.186;2023-02-01T19:15:26;6.70;73.00
810;DHT22;387;48.772;9.186;2023-02-01T19:17:53;6.70;72.90
810;DHT22;387;48.772;9.186;2023-02-01T19:20:22;6.70;72.90
810;DHT22;387;48.772;9.186;2023-02-01T19:22:48;6.70;72.90